Strona główna
METAR-TAF:

METAR-TAF

Lotnisko :

Vlieland, Holandia

Szerokość geograficzna: 53-15N, Długość geograficzna: 004-55E, wysokość: 11 m

Aktualna obserwacja pogody

Raport powstał 18 minut temu, godzina 14:13 UTC
Wiatr 7 kt od zachód, zmienny między południowy zachód i zachodnio-północny zachód
Temperatura 21°C
Wilgotność 73%
Ciśnienie 1015 hPa
Widzialność 10 km lub więcej
Rozproszone chmury na wysokości 1500 ft
Rozproszone chmury na wysokości 31000 ft

METAR: EHVL 171413Z AUTO 26007KT 230V290 9999 SCT015 SCT310 21/16 Q1015 WHT

czas: 16:31 (14:31 UTC)


TAF: brakujący

Obserwacja i prognoza pogody dla ponad 4000 lotnisk (raport METAR i TAF).

Dostępne stacje oznaczono żółtymi i czerwonymi punktami na mapie.

Najedź kursorem aby zobaczyć nazwę stacji.

Kliknij aby zobaczyć obserwacje i prognozy pogody.

Aby zmienić mapę: kliknij na zielony przycisk z czarnym krzyżykiem, aby powiększyć; na zielony przycisk z myślnikiem, aby pomniejszyć; na zielone strzałki, aby przejść do map sąsiednich.


METAR-TAF: